sensor_id;sensor_type;location;lat;lon;timestamp;pressure;altitude;pressure_sealevel;temperature;humidity
50368;BME280;36281;34.132;-118.018;2023-02-05T00:00:32;100402.59;;;22.37;27.38
50368;BME280;36281;34.132;-118.018;2023-02-05T00:03:00;100403.19;;;22.34;27.68
50368;BME280;36281;34.132;-118.018;2023-02-05T00:05:29;100405.91;;;22.29;27.90
50368;BME280;36281;34.132;-118.018;2023-02-05T00:07:58;100405.91;;;22.24;27.48
50368;BME280;36281;34.132;-118.018;2023-02-05T00:10:27;100414.56;;;22.21;27.97
50368;BME280;36281;34.132;-118.018;2023-02-05T00:12:56;100411.34;;;22.13;28.02
50368;BME280;36281;34.132;-118.018;2023-02-05T00:15:24;100412.41;;;22.07;27.00
50368;BME280;36281;34.132;-118.018;2023-02-05T00:17:52;100417.81;;;22.02;27.29
50368;BME280;36281;34.132;-118.018;2023-02-05T00:20:20;100417.81;;;21.97;27.63
50368;BME280;36281;34.132;-118.018;2023-02-05T00:22:49;100423.78;;;21.94;28.10
50368;BME280;36281;34.132;-118.018;2023-02-05T00:25:17;100421.09;;;21.89;27.15
50368;BME280;36281;34.132;-118.018;2023-02-05T00:27:47;100427.03;;;21.86;27.71
50368;BME280;36281;34.132;-118.018;2023-02-05T00:30:15;100425.69;;;21.78;27.69
50368;BME280;36281;34.132;-118.018;2023-02-05T00:32:43;100431.63;;;21.75;27.02
50368;BME280;36281;34.132;-118.018;2023-02-05T00:35:11;100430.28;;;21.67;27.03
50368;BME280;36281;34.132;-118.018;2023-02-05T00:37:40;100423.28;;;21.66;27.46
50368;BME280;36281;34.132;-118.018;2023-02-05T00:40:08;100427.59;;;21.57;27.23
50368;BME280;36281;34.132;-118.018;2023-02-05T00:42:37;100427.06;;;21.55;27.60
50368;BME280;36281;34.132;-118.018;2023-02-05T00:45:07;100418.19;;;21.50;27.48
50368;BME280;36281;34.132;-118.018;2023-02-05T00:47:36;100436.25;;;21.44;28.10
50368;BME280;36281;34.132;-118.018;2023-02-05T00:50:04;100427.59;;;21.37;28.00
50368;BME280;36281;34.132;-118.018;2023-02-05T00:52:32;100429.19;;;21.28;27.47
50368;BME280;36281;34.132;-118.018;2023-02-05T00:55:01;100441.03;;;21.22;28.18
50368;BME280;36281;34.132;-118.018;2023-02-05T00:57:29;100444.28;;;21.13;28.14
50368;BME280;36281;34.132;-118.018;2023-02-05T00:59:57;100448.56;;;21.04;28.40
50368;BME280;36281;34.132;-118.018;2023-02-05T01:02:27;100449.59;;;20.98;28.62
50368;BME280;36281;34.132;-118.018;2023-02-05T01:04:55;100459.81;;;20.86;28.62
50368;BME280;36281;34.132;-118.018;2023-02-05T01:07:23;100467.34;;;20.79;28.79
50368;BME280;36281;34.132;-118.018;2023-02-05T01:09:52;100468.94;;;20.75;29.08
50368;BME280;36281;34.132;-118.018;2023-02-05T01:12:20;100478.59;;;20.65;29.74
50368;BME280;36281;34.132;-118.018;2023-02-05T01:14:48;100484.75;;;20.56;29.92
50368;BME280;36281;34.132;-118.018;2023-02-05T01:17:16;100493.56;;;20.46;30.01
50368;BME280;36281;34.132;-118.018;2023-02-05T01:19:46;100496.47;;;20.34;30.39
50368;BME280;36281;34.132;-118.018;2023-02-05T01:22:14;100499.34;;;20.23;30.56
50368;BME280;36281;34.132;-118.018;2023-02-05T01:24:43;100503.84;;;20.12;30.87
50368;BME280;36281;34.132;-118.018;2023-02-05T01:27:11;100511.03;;;20.01;30.60
50368;BME280;36281;34.132;-118.018;2023-02-05T01:29:39;100519.84;;;19.92;30.54
50368;BME280;36281;34.132;-118.018;2023-02-05T01:32:07;100517.34;;;19.80;30.26
50368;BME280;36281;34.132;-118.018;2023-02-05T01:34:36;100523.19;;;19.72;31.16
50368;BME280;36281;34.132;-118.018;2023-02-05T01:37:06;100529.28;;;19.62;30.73
50368;BME280;36281;34.132;-118.018;2023-02-05T01:39:34;100536.13;;;19.53;30.84
50368;BME280;36281;34.132;-118.018;2023-02-05T01:42:05;100538.72;;;19.43;31.96
50368;BME280;36281;34.132;-118.018;2023-02-05T01:44:41;100545.88;;;19.32;31.49
50368;BME280;36281;34.132;-118.018;2023-02-05T01:47:10;100545.78;;;19.22;32.00
50368;BME280;36281;34.132;-118.018;2023-02-05T01:49:39;100554.19;;;19.08;31.91
50368;BME280;36281;34.132;-118.018;2023-02-05T01:52:10;100561.59;;;18.96;31.92
50368;BME280;36281;34.132;-118.018;2023-02-05T01:54:41;100567.91;;;18.85;32.17
50368;BME280;36281;34.132;-118.018;2023-02-05T01:57:13;100576.38;;;18.77;32.64
50368;BME280;36281;34.132;-118.018;2023-02-05T01:59:43;100579.47;;;18.69;33.07
50368;BME280;36281;34.132;-118.018;2023-02-05T02:02:12;100570.19;;;18.59;33.07
50368;BME280;36281;34.132;-118.018;2023-02-05T02:04:41;100577.59;;;18.52;32.79
50368;BME280;36281;34.132;-118.018;2023-02-05T02:07:12;100564.38;;;18.46;33.31
50368;BME280;36281;34.132;-118.018;2023-02-05T02:09:41;100566.66;;;18.37;34.05
50368;BME280;36281;34.132;-118.018;2023-02-05T02:12:10;100562.78;;;18.28;34.09
50368;BME280;36281;34.132;-118.018;2023-02-05T02:14:39;100564.81;;;18.21;34.08
50368;BME280;36281;34.132;-118.018;2023-02-05T02:17:17;100559.31;;;18.11;34.84
50368;BME280;36281;34.132;-118.018;2023-02-05T02:19:47;100551.91;;;18.01;34.63
50368;BME280;36281;34.132;-118.018;2023-02-05T02:22:32;100556.38;;;17.95;34.82
50368;BME280;36281;34.132;-118.018;2023-02-05T02:27:50;100552.78;;;17.73;35.77
50368;BME280;36281;34.132;-118.018;2023-02-05T02:30:22;100550.69;;;17.63;35.75
50368;BME280;36281;34.132;-118.018;2023-02-05T02:32:55;100551.84;;;17.50;36.36
50368;BME280;36281;34.132;-118.018;2023-02-05T02:35:26;100560.72;;;17.39;37.43
50368;BME280;36281;34.132;-118.018;2023-02-05T02:37:59;100549.72;;;17.24;38.10
50368;BME280;36281;34.132;-118.018;2023-02-05T02:40:35;100558.59;;;17.13;38.30
50368;BME280;36281;34.132;-118.018;2023-02-05T02:43:07;100563.41;;;16.99;38.95
50368;BME280;36281;34.132;-118.018;2023-02-05T02:45:41;100566.69;;;16.89;38.87
50368;BME280;36281;34.132;-118.018;2023-02-05T02:48:11;100576.03;;;16.75;39.34
50368;BME280;36281;34.132;-118.018;2023-02-05T02:50:41;100569.97;;;16.68;39.06
50368;BME280;36281;34.132;-118.018;2023-02-05T02:53:12;100566.47;;;16.55;39.51
50368;BME280;36281;34.132;-118.018;2023-02-05T02:55:41;100583.69;;;16.48;40.34
50368;BME280;36281;34.132;-118.018;2023-02-05T02:58:14;100591.25;;;16.39;40.63
50368;BME280;36281;34.132;-118.018;2023-02-05T03:00:43;100599.03;;;16.29;40.79
50368;BME280;36281;34.132;-118.018;2023-02-05T03:03:12;100601.47;;;16.19;41.03
50368;BME280;36281;34.132;-118.018;2023-02-05T03:05:41;100605.88;;;16.13;40.88
50368;BME280;36281;34.132;-118.018;2023-02-05T03:08:12;100609.66;;;16.06;41.27
50368;BME280;36281;34.132;-118.018;2023-02-05T03:10:44;100600.38;;;15.96;42.23
50368;BME280;36281;34.132;-118.018;2023-02-05T03:13:15;100603.00;;;15.85;42.07
50368;BME280;36281;34.132;-118.018;2023-02-05T03:15:44;100604.25;;;15.70;42.82
50368;BME280;36281;34.132;-118.018;2023-02-05T03:18:13;100604.19;;;15.59;42.74
50368;BME280;36281;34.132;-118.018;2023-02-05T03:20:44;100605.09;;;15.52;43.15
50368;BME280;36281;34.132;-118.018;2023-02-05T03:23:12;100607.81;;;15.46;43.67
50368;BME280;36281;34.132;-118.018;2023-02-05T03:25:41;100619.41;;;15.40;43.51
50368;BME280;36281;34.132;-118.018;2023-02-05T03:28:09;100619.50;;;15.33;43.60
50368;BME280;36281;34.132;-118.018;2023-02-05T03:30:42;100628.41;;;15.27;44.10
50368;BME280;36281;34.132;-118.018;2023-02-05T03:33:16;100625.59;;;15.22;44.38
50368;BME280;36281;34.132;-118.018;2023-02-05T03:35:50;100617.22;;;15.18;44.58
50368;BME280;36281;34.132;-118.018;2023-02-05T03:38:26;100621.59;;;15.13;44.73
50368;BME280;36281;34.132;-118.018;2023-02-05T03:40:57;100626.78;;;15.08;45.56
50368;BME280;36281;34.132;-118.018;2023-02-05T03:43:30;100627.66;;;15.02;45.91
50368;BME280;36281;34.132;-118.018;2023-02-05T03:46:02;100623.81;;;14.97;46.07
50368;BME280;36281;34.132;-118.018;2023-02-05T03:48:36;100633.38;;;14.87;46.22
50368;BME280;36281;34.132;-118.018;2023-02-05T03:51:09;100635.50;;;14.78;46.43
50368;BME280;36281;34.132;-118.018;2023-02-05T03:53:42;100637.56;;;14.76;46.63
50368;BME280;36281;34.132;-118.018;2023-02-05T03:56:12;100631.50;;;14.69;46.84
50368;BME280;36281;34.132;-118.018;2023-02-05T03:58:44;100644.91;;;14.62;47.03
50368;BME280;36281;34.132;-118.018;2023-02-05T04:01:15;100646.56;;;14.57;47.14
50368;BME280;36281;34.132;-118.018;2023-02-05T04:03:43;100648.06;;;14.53;47.21
50368;BME280;36281;34.132;-118.018;2023-02-05T04:06:12;100656.88;;;14.46;47.73
50368;BME280;36281;34.132;-118.018;2023-02-05T04:08:40;100654.66;;;14.43;48.10
50368;BME280;36281;34.132;-118.018;2023-02-05T04:11:23;100664.13;;;14.39;48.41
50368;BME280;36281;34.132;-118.018;2023-02-05T04:13:52;100666.63;;;14.34;48.15
50368;BME280;36281;34.132;-118.018;2023-02-05T04:16:21;100661.94;;;14.30;48.48
50368;BME280;36281;34.132;-118.018;2023-02-05T04:18:50;100673.47;;;14.23;48.95
50368;BME280;36281;34.132;-118.018;2023-02-05T04:21:18;100669.59;;;14.19;49.10
50368;BME280;36281;34.132;-118.018;2023-02-05T04:23:46;100676.59;;;14.14;49.20
50368;BME280;36281;34.132;-118.018;2023-02-05T04:26:14;100673.75;;;14.09;48.84
50368;BME280;36281;34.132;-118.018;2023-02-05T04:28:43;100678.69;;;14.05;48.23
50368;BME280;36281;34.132;-118.018;2023-02-05T04:31:11;100674.63;;;14.03;49.50
50368;BME280;36281;34.132;-118.018;2023-02-05T04:33:41;100688.59;;;13.98;49.08
50368;BME280;36281;34.132;-118.018;2023-02-05T04:36:09;100686.34;;;13.95;49.57
50368;BME280;36281;34.132;-118.018;2023-02-05T04:38:38;100681.66;;;13.90;50.02
50368;BME280;36281;34.132;-118.018;2023-02-05T04:41:06;100676.78;;;13.87;49.77
50368;BME280;36281;34.132;-118.018;2023-02-05T04:43:34;100684.53;;;13.82;50.73
50368;BME280;36281;34.132;-118.018;2023-02-05T04:46:06;100684.38;;;13.77;51.04
50368;BME280;36281;34.132;-118.018;2023-02-05T04:48:34;100692.00;;;13.74;51.14
50368;BME280;36281;34.132;-118.018;2023-02-05T04:51:06;100698.16;;;13.67;51.55
50368;BME280;36281;34.132;-118.018;2023-02-05T04:53:35;100694.47;;;13.62;51.62
50368;BME280;36281;34.132;-118.018;2023-02-05T04:56:04;100696.34;;;13.55;52.41
50368;BME280;36281;34.132;-118.018;2023-02-05T04:58:32;100694.09;;;13.52;52.61
50368;BME280;36281;34.132;-118.018;2023-02-05T05:01:01;100691.06;;;13.48;53.26
50368;BME280;36281;34.132;-118.018;2023-02-05T05:03:29;100688.81;;;13.45;53.18
50368;BME280;36281;34.132;-118.018;2023-02-05T05:06:02;100692.31;;;13.39;52.77
50368;BME280;36281;34.132;-118.018;2023-02-05T05:08:31;100698.88;;;13.36;53.16
50368;BME280;36281;34.132;-118.018;2023-02-05T05:11:04;100696.66;;;13.33;53.37
50368;BME280;36281;34.132;-118.018;2023-02-05T05:13:33;100696.25;;;13.30;53.07
50368;BME280;36281;34.132;-118.018;2023-02-05T05:16:02;100699.94;;;13.29;53.21
50368;BME280;36281;34.132;-118.018;2023-02-05T05:18:30;100690.72;;;13.25;53.14
50368;BME280;36281;34.132;-118.018;2023-02-05T05:20:59;100708.53;;;13.24;53.92
50368;BME280;36281;34.132;-118.018;2023-02-05T05:23:27;100706.25;;;13.21;54.25
50368;BME280;36281;34.132;-118.018;2023-02-05T05:25:57;100705.03;;;13.17;54.07
50368;BME280;36281;34.132;-118.018;2023-02-05T05:28:26;100707.91;;;13.15;54.57
50368;BME280;36281;34.132;-118.018;2023-02-05T05:30:54;100716.50;;;13.11;54.93
50368;BME280;36281;34.132;-118.018;2023-02-05T05:33:22;100714.28;;;13.08;54.85
50368;BME280;36281;34.132;-118.018;2023-02-05T05:35:50;100720.00;;;13.05;55.10
50368;BME280;36281;34.132;-118.018;2023-02-05T05:38:19;100717.56;;;13.03;55.34
50368;BME280;36281;34.132;-118.018;2023-02-05T05:40:47;100718.97;;;12.99;55.21
50368;BME280;36281;34.132;-118.018;2023-02-05T05:43:35;100710.59;;;12.96;55.08
50368;BME280;36281;34.132;-118.018;2023-02-05T05:46:16;100718.38;;;12.90;55.91
50368;BME280;36281;34.132;-118.018;2023-02-05T05:48:49;100716.13;;;12.87;55.56
50368;BME280;36281;34.132;-118.018;2023-02-05T05:51:17;100713.06;;;12.84;56.05
50368;BME280;36281;34.132;-118.018;2023-02-05T05:53:46;100714.28;;;12.81;55.86
50368;BME280;36281;34.132;-118.018;2023-02-05T05:56:14;100716.34;;;12.79;55.82
50368;BME280;36281;34.132;-118.018;2023-02-05T05:58:45;100713.06;;;12.77;55.89
50368;BME280;36281;34.132;-118.018;2023-02-05T06:01:14;100708.97;;;12.75;56.44
50368;BME280;36281;34.132;-118.018;2023-02-05T06:03:42;100713.88;;;12.71;57.44
50368;BME280;36281;34.132;-118.018;2023-02-05T06:06:11;100705.50;;;12.67;57.55
50368;BME280;36281;34.132;-118.018;2023-02-05T06:08:39;100708.56;;;12.64;57.35
50368;BME280;36281;34.132;-118.018;2023-02-05T06:11:07;100710.22;;;12.59;57.71
50368;BME280;36281;34.132;-118.018;2023-02-05T06:13:36;100711.63;;;12.55;57.57
50368;BME280;36281;34.132;-118.018;2023-02-05T06:16:06;100716.31;;;12.53;56.82
50368;BME280;36281;34.132;-118.018;2023-02-05T06:18:34;100721.03;;;12.51;57.00
50368;BME280;36281;34.132;-118.018;2023-02-05T06:21:03;100715.28;;;12.47;57.30
50368;BME280;36281;34.132;-118.018;2023-02-05T06:23:32;100720.81;;;12.46;56.98
50368;BME280;36281;34.132;-118.018;2023-02-05T06:26:01;100720.22;;;12.44;57.01
50368;BME280;36281;34.132;-118.018;2023-02-05T06:28:29;100723.06;;;12.42;57.08
50368;BME280;36281;34.132;-118.018;2023-02-05T06:30:57;100715.31;;;12.40;57.59
50368;BME280;36281;34.132;-118.018;2023-02-05T06:33:27;100711.41;;;12.36;58.16
50368;BME280;36281;34.132;-118.018;2023-02-05T06:35:56;100708.16;;;12.34;58.65
50368;BME280;36281;34.132;-118.018;2023-02-05T06:38:24;100705.66;;;12.33;58.05
50368;BME280;36281;34.132;-118.018;2023-02-05T06:40:52;100704.25;;;12.30;57.99
50368;BME280;36281;34.132;-118.018;2023-02-05T06:43:20;100710.59;;;12.29;57.55
50368;BME280;36281;34.132;-118.018;2023-02-05T06:45:48;100723.25;;;12.27;58.12
50368;BME280;36281;34.132;-118.018;2023-02-05T06:48:17;100719.16;;;12.25;58.44
50368;BME280;36281;34.132;-118.018;2023-02-05T06:50:47;100721.41;;;12.21;59.45
50368;BME280;36281;34.132;-118.018;2023-02-05T06:53:15;100718.53;;;12.16;59.51
50368;BME280;36281;34.132;-118.018;2023-02-05T06:55:43;100725.06;;;12.13;59.20
50368;BME280;36281;34.132;-118.018;2023-02-05T06:58:11;100721.34;;;12.08;59.76
50368;BME280;36281;34.132;-118.018;2023-02-05T07:00:39;100724.22;;;12.06;59.57
50368;BME280;36281;34.132;-118.018;2023-02-05T07:03:08;100726.44;;;12.03;59.48
50368;BME280;36281;34.132;-118.018;2023-02-05T07:05:36;100724.22;;;12.00;59.61
50368;BME280;36281;34.132;-118.018;2023-02-05T07:08:06;100727.25;;;11.97;59.22
50368;BME280;36281;34.132;-118.018;2023-02-05T07:10:34;100726.66;;;11.95;59.74
50368;BME280;36281;34.132;-118.018;2023-02-05T07:13:02;100736.63;;;11.93;59.92
50368;BME280;36281;34.132;-118.018;2023-02-05T07:15:31;100730.91;;;11.89;60.05
50368;BME280;36281;34.132;-118.018;2023-02-05T07:18:02;100727.19;;;11.83;60.51
50368;BME280;36281;34.132;-118.018;2023-02-05T07:20:31;100725.13;;;11.79;60.40
50368;BME280;36281;34.132;-118.018;2023-02-05T07:22:59;100718.75;;;11.73;60.61
50368;BME280;36281;34.132;-118.018;2023-02-05T07:25:29;100722.44;;;11.72;61.12
50368;BME280;36281;34.132;-118.018;2023-02-05T07:28:03;100719.19;;;11.70;60.87
50368;BME280;36281;34.132;-118.018;2023-02-05T07:30:31;100719.19;;;11.70;60.47
50368;BME280;36281;34.132;-118.018;2023-02-05T07:32:59;100715.88;;;11.68;61.29
50368;BME280;36281;34.132;-118.018;2023-02-05T07:35:30;100715.28;;;11.66;61.61
50368;BME280;36281;34.132;-118.018;2023-02-05T07:37:59;100715.28;;;11.66;61.12
50368;BME280;36281;34.132;-118.018;2023-02-05T07:40:29;100723.63;;;11.63;61.23
50368;BME280;36281;34.132;-118.018;2023-02-05T07:42:57;100722.00;;;11.62;60.92
50368;BME280;36281;34.132;-118.018;2023-02-05T07:45:25;100716.06;;;11.60;61.14
50368;BME280;36281;34.132;-118.018;2023-02-05T07:47:53;100724.22;;;11.58;60.75
50368;BME280;36281;34.132;-118.018;2023-02-05T07:50:22;100722.56;;;11.57;61.26
50368;BME280;36281;34.132;-118.018;2023-02-05T07:52:50;100715.84;;;11.55;61.48
50368;BME280;36281;34.132;-118.018;2023-02-05T07:55:18;100719.69;;;11.52;61.72
50368;BME280;36281;34.132;-118.018;2023-02-05T07:57:48;100723.38;;;11.51;62.19
50368;BME280;36281;34.132;-118.018;2023-02-05T08:00:16;100725.41;;;11.49;62.76
50368;BME280;36281;34.132;-118.018;2023-02-05T08:02:45;100730.91;;;11.48;62.61
50368;BME280;36281;34.132;-118.018;2023-02-05T08:05:13;100724.97;;;11.46;62.66
50368;BME280;36281;34.132;-118.018;2023-02-05T08:07:42;100725.56;;;11.41;63.02
50368;BME280;36281;34.132;-118.018;2023-02-05T08:10:11;100719.81;;;11.37;63.12
50368;BME280;36281;34.132;-118.018;2023-02-05T08:12:40;100722.69;;;11.36;63.26
50368;BME280;36281;34.132;-118.018;2023-02-05T08:15:10;100724.09;;;11.32;63.70
50368;BME280;36281;34.132;-118.018;2023-02-05T08:17:38;100716.72;;;11.27;63.97
50368;BME280;36281;34.132;-118.018;2023-02-05T08:20:07;100715.28;;;11.25;64.04
50368;BME280;36281;34.132;-118.018;2023-02-05T08:22:36;100721.56;;;11.24;63.83
50368;BME280;36281;34.132;-118.018;2023-02-05T08:25:08;100723.81;;;11.20;63.28
50368;BME280;36281;34.132;-118.018;2023-02-05T08:27:38;100718.50;;;11.20;63.18
50368;BME280;36281;34.132;-118.018;2023-02-05T08:30:08;100715.88;;;11.20;63.43
50368;BME280;36281;34.132;-118.018;2023-02-05T08:32:39;100718.50;;;11.20;63.55
50368;BME280;36281;34.132;-118.018;2023-02-05T08:35:07;100720.53;;;11.18;63.32
50368;BME280;36281;34.132;-118.018;2023-02-05T08:37:35;100720.53;;;11.18;63.63
50368;BME280;36281;34.132;-118.018;2023-02-05T08:40:04;100720.94;;;11.15;63.87
50368;BME280;36281;34.132;-118.018;2023-02-05T08:42:32;100723.97;;;11.12;64.14
50368;BME280;36281;34.132;-118.018;2023-02-05T08:45:00;100721.50;;;11.10;64.21
50368;BME280;36281;34.132;-118.018;2023-02-05T08:47:30;100717.22;;;11.09;63.88
50368;BME280;36281;34.132;-118.018;2023-02-05T08:50:01;100715.75;;;11.07;63.89
50368;BME280;36281;34.132;-118.018;2023-02-05T08:52:29;100719.00;;;11.02;64.51
50368;BME280;36281;34.132;-118.018;2023-02-05T08:54:57;100719.41;;;10.99;64.49
50368;BME280;36281;34.132;-118.018;2023-02-05T08:57:26;100719.78;;;10.96;64.65
50368;BME280;36281;34.132;-118.018;2023-02-05T08:59:55;100718.31;;;10.94;64.46
50368;BME280;36281;34.132;-118.018;2023-02-05T09:02:24;100714.03;;;10.93;64.82
50368;BME280;36281;34.132;-118.018;2023-02-05T09:04:55;100717.25;;;10.88;65.13
50368;BME280;36281;34.132;-118.018;2023-02-05T09:07:36;100722.97;;;10.85;65.23
50368;BME280;36281;34.132;-118.018;2023-02-05T09:10:05;100713.75;;;10.81;65.62
50368;BME280;36281;34.132;-118.018;2023-02-05T09:12:33;100714.94;;;10.78;65.39
50368;BME280;36281;34.132;-118.018;2023-02-05T09:15:03;100718.81;;;10.76;65.57
50368;BME280;36281;34.132;-118.018;2023-02-05T09:17:32;100714.69;;;10.73;65.60
50368;BME280;36281;34.132;-118.018;2023-02-05T09:20:00;100726.50;;;10.71;66.09
50368;BME280;36281;34.132;-118.018;2023-02-05T09:22:28;100730.19;;;10.70;65.96
50368;BME280;36281;34.132;-118.018;2023-02-05T09:24:58;100733.00;;;10.68;66.25
50368;BME280;36281;34.132;-118.018;2023-02-05T09:27:27;100741.53;;;10.64;66.46
50368;BME280;36281;34.132;-118.018;2023-02-05T09:29:55;100743.56;;;10.61;66.97
50368;BME280;36281;34.132;-118.018;2023-02-05T09:32:23;100735.00;;;10.59;66.89
50368;BME280;36281;34.132;-118.018;2023-02-05T09:34:52;100737.19;;;10.56;66.92
50368;BME280;36281;34.132;-118.018;2023-02-05T09:37:20;100732.25;;;10.53;67.11
50368;BME280;36281;34.132;-118.018;2023-02-05T09:39:49;100731.44;;;10.52;67.05
50368;BME280;36281;34.132;-118.018;2023-02-05T09:42:41;100731.84;;;10.49;66.84
50368;BME280;36281;34.132;-118.018;2023-02-05T09:45:15;100728.75;;;10.46;67.29
50368;BME280;36281;34.132;-118.018;2023-02-05T09:47:52;100722.53;;;10.39;67.42
50368;BME280;36281;34.132;-118.018;2023-02-05T09:50:21;100724.59;;;10.37;67.71
50368;BME280;36281;34.132;-118.018;2023-02-05T09:52:56;100725.75;;;10.34;67.83
50368;BME280;36281;34.132;-118.018;2023-02-05T09:55:27;100721.47;;;10.33;68.31
50368;BME280;36281;34.132;-118.018;2023-02-05T09:57:58;100724.31;;;10.31;68.02
50368;BME280;36281;34.132;-118.018;2023-02-05T10:00:31;100726.16;;;10.31;68.23
50368;BME280;36281;34.132;-118.018;2023-02-05T10:03:01;100733.28;;;10.30;68.22
50368;BME280;36281;34.132;-118.018;2023-02-05T10:05:37;100729.00;;;10.29;68.29
50368;BME280;36281;34.132;-118.018;2023-02-05T10:08:08;100725.72;;;10.27;68.27
50368;BME280;36281;34.132;-118.018;2023-02-05T10:10:43;100718.97;;;10.25;68.59
50368;BME280;36281;34.132;-118.018;2023-02-05T10:18:53;100711.56;;;10.20;68.59
50368;BME280;36281;34.132;-118.018;2023-02-05T10:21:31;100717.03;;;10.19;68.86
50368;BME280;36281;34.132;-118.018;2023-02-05T10:24:06;100722.53;;;10.17;68.95
50368;BME280;36281;34.132;-118.018;2023-02-05T10:26:45;100721.91;;;10.15;69.03
50368;BME280;36281;34.132;-118.018;2023-02-05T10:29:17;100716.97;;;10.12;69.22
50368;BME280;36281;34.132;-118.018;2023-02-05T10:31:53;100720.81;;;10.09;69.27
50368;BME280;36281;34.132;-118.018;2023-02-05T10:34:29;100722.00;;;10.07;69.39
50368;BME280;36281;34.132;-118.018;2023-02-05T10:37:00;100721.38;;;10.05;69.49
50368;BME280;36281;34.132;-118.018;2023-02-05T10:39:30;100714.44;;;10.04;69.42
50368;BME280;36281;34.132;-118.018;2023-02-05T10:41:59;100713.00;;;10.01;69.67
50368;BME280;36281;34.132;-118.018;2023-02-05T10:44:30;100715.19;;;9.98;70.08
50368;BME280;36281;34.132;-118.018;2023-02-05T10:47:01;100712.72;;;9.96;69.99
50368;BME280;36281;34.132;-118.018;2023-02-05T10:49:39;100720.88;;;9.95;70.08
50368;BME280;36281;34.132;-118.018;2023-02-05T10:52:10;100729.78;;;9.94;70.18
50368;BME280;36281;34.132;-118.018;2023-02-05T10:54:39;100732.63;;;9.92;69.99
50368;BME280;36281;34.132;-118.018;2023-02-05T10:57:12;100737.09;;;9.92;70.13
50368;BME280;36281;34.132;-118.018;2023-02-05T10:59:44;100733.84;;;9.90;70.10
50368;BME280;36281;34.132;-118.018;2023-02-05T11:02:16;100730.72;;;9.86;70.68
50368;BME280;36281;34.132;-118.018;2023-02-05T11:04:47;100728.09;;;9.86;70.66
50368;BME280;36281;34.132;-118.018;2023-02-05T11:07:18;100736.84;;;9.87;70.92
50368;BME280;36281;34.132;-118.018;2023-02-05T11:09:49;100726.88;;;9.89;70.94
50368;BME280;36281;34.132;-118.018;2023-02-05T11:12:19;100728.53;;;9.90;71.24
50368;BME280;36281;34.132;-118.018;2023-02-05T11:14:54;100722.66;;;9.94;71.40
50368;BME280;36281;34.132;-118.018;2023-02-05T11:17:25;100721.50;;;9.97;72.01
50368;BME280;36281;34.132;-118.018;2023-02-05T11:19:59;100729.06;;;10.00;72.33
50368;BME280;36281;34.132;-118.018;2023-02-05T11:22:29;100728.88;;;10.01;72.08
50368;BME280;36281;34.132;-118.018;2023-02-05T11:25:05;100727.66;;;10.04;71.74
50368;BME280;36281;34.132;-118.018;2023-02-05T11:27:34;100729.13;;;10.06;72.05
50368;BME280;36281;34.132;-118.018;2023-02-05T11:30:17;100721.81;;;10.08;72.23
50368;BME280;36281;34.132;-118.018;2023-02-05T11:33:22;100716.34;;;10.10;72.62
50368;BME280;36281;34.132;-118.018;2023-02-05T11:35:53;100714.31;;;10.12;72.58
50368;BME280;36281;34.132;-118.018;2023-02-05T11:38:25;100711.69;;;10.12;73.26
50368;BME280;36281;34.132;-118.018;2023-02-05T11:40:57;100712.94;;;10.16;73.10
50368;BME280;36281;34.132;-118.018;2023-02-05T11:43:26;100693.84;;;10.21;73.25
50368;BME280;36281;34.132;-118.018;2023-02-05T11:45:56;100704.91;;;10.24;73.23
50368;BME280;36281;34.132;-118.018;2023-02-05T11:48:36;100692.91;;;10.28;73.60
50368;BME280;36281;34.132;-118.018;2023-02-05T11:51:07;100711.09;;;10.31;73.81
50368;BME280;36281;34.132;-118.018;2023-02-05T11:53:36;100695.66;;;10.35;73.61
50368;BME280;36281;34.132;-118.018;2023-02-05T11:56:10;100693.41;;;10.39;73.85
50368;BME280;36281;34.132;-118.018;2023-02-05T11:58:56;100697.34;;;10.43;73.85
50368;BME280;36281;34.132;-118.018;2023-02-05T12:01:25;100688.00;;;10.47;73.69
50368;BME280;36281;34.132;-118.018;2023-02-05T12:03:59;100680.50;;;10.50;73.93
50368;BME280;36281;34.132;-118.018;2023-02-05T12:06:32;100683.78;;;10.52;73.69
50368;BME280;36281;34.132;-118.018;2023-02-05T12:09:02;100683.56;;;10.54;74.10
50368;BME280;36281;34.132;-118.018;2023-02-05T12:11:42;100690.53;;;10.55;73.96
50368;BME280;36281;34.132;-118.018;2023-02-05T12:14:37;100690.53;;;10.55;73.95
50368;BME280;36281;34.132;-118.018;2023-02-05T12:17:11;100681.13;;;10.52;74.05
50368;BME280;36281;34.132;-118.018;2023-02-05T12:19:45;100684.78;;;10.51;73.96
50368;BME280;36281;34.132;-118.018;2023-02-05T12:22:22;100683.16;;;10.50;73.67
50368;BME280;36281;34.132;-118.018;2023-02-05T12:24:57;100681.53;;;10.49;73.60
50368;BME280;36281;34.132;-118.018;2023-02-05T12:27:32;100685.16;;;10.48;73.81
50368;BME280;36281;34.132;-118.018;2023-02-05T12:30:05;100682.72;;;10.47;74.06
50368;BME280;36281;34.132;-118.018;2023-02-05T12:32:39;100679.25;;;10.46;73.88
50368;BME280;36281;34.132;-118.018;2023-02-05T12:35:19;100674.31;;;10.43;73.77
50368;BME280;36281;34.132;-118.018;2023-02-05T12:37:52;100670.47;;;10.46;74.11
50368;BME280;36281;34.132;-118.018;2023-02-05T12:40:29;100679.03;;;10.48;74.14
50368;BME280;36281;34.132;-118.018;2023-02-05T12:43:01;100676.22;;;10.49;74.39
50368;BME280;36281;34.132;-118.018;2023-02-05T12:45:34;100675.00;;;10.52;74.74